Time;durP1;ratioP1;P1;durP2;ratioP2;P2;SDS_P1;SDS_P2;PMS_P1;PMS_P2;Temp;Humidity;BMP_temperature;BMP_pressure;BME280_temperature;BME280_humidity;BME280_pressure;Samples;Min_cycle;Max_cycle;Signal;HPM_P1;HPM_P2
2022/01/29 00:00:36;;;;;;;28.50;3.42;;;;;;;4.42;100.00;101135.50;4914670;29;20096;-85
2022/01/29 00:03:01;;;;;;;34.05;3.80;;;;;;;4.41;100.00;101127.66;4931264;29;20039;-84
2022/01/29 00:05:27;;;;;;;37.50;4.30;;;;;;;4.32;100.00;101089.44;4899579;29;20032;-85
2022/01/29 00:07:52;;;;;;;29.95;3.67;;;;;;;4.35;100.00;101077.63;4887436;29;20174;-83
2022/01/29 00:10:18;;;;;;;23.90;3.05;;;;;;;4.32;100.00;101070.78;4902785;29;20073;-84
2022/01/29 00:12:43;;;;;;;33.53;4.05;;;;;;;4.32;100.00;101061.97;4931696;29;20067;-83
2022/01/29 00:15:10;;;;;;;29.88;3.92;;;;;;;4.33;100.00;101044.97;4914006;29;20059;-84
2022/01/29 00:17:35;;;;;;;27.55;3.85;;;;;;;4.38;100.00;101050.69;4915049;29;20084;-84
2022/01/29 00:20:01;;;;;;;38.13;4.20;;;;;;;4.40;100.00;101051.38;4899489;29;20083;-84
2022/01/29 00:22:27;;;;;;;30.63;3.92;;;;;;;4.29;100.00;101003.66;4932705;29;20039;-83
2022/01/29 00:24:52;;;;;;;32.55;3.50;;;;;;;4.42;100.00;101012.94;4899266;29;20032;-84
2022/01/29 00:27:20;;;;;;;33.75;3.70;;;;;;;4.36;100.00;100991.38;4913483;29;20087;-84
2022/01/29 00:29:45;;;;;;;31.13;3.95;;;;;;;4.40;100.00;100984.75;4914289;29;20035;-83
2022/01/29 00:32:12;;;;;;;29.27;3.90;;;;;;;4.45;100.00;100991.31;4930273;29;20036;-84
2022/01/29 00:34:39;;;;;;;33.25;3.75;;;;;;;4.44;100.00;100978.16;4916629;29;20039;-83
2022/01/29 00:37:05;;;;;;;31.08;4.25;;;;;;;4.46;100.00;100961.00;4911008;29;20039;-84
2022/01/29 00:39:30;;;;;;;34.92;3.25;;;;;;;4.47;100.00;100959.19;4904436;29;20131;-84
2022/01/29 00:41:56;;;;;;;25.63;3.00;;;;;;;4.42;100.00;100942.81;4877432;29;20036;-83
2022/01/29 00:44:21;;;;;;;33.20;3.92;;;;;;;4.36;100.00;100916.81;4883394;29;20040;-83
2022/01/29 00:46:47;;;;;;;37.97;4.65;;;;;;;4.41;100.00;100926.00;4893327;29;20028;-83
2022/01/29 00:49:14;;;;;;;30.55;4.20;;;;;;;4.53;100.00;100933.72;4881671;29;20450;-83
2022/01/29 00:51:40;;;;;;;35.30;4.10;;;;;;;4.53;100.00;100923.91;4911013;29;20076;-85
2022/01/29 00:54:06;;;;;;;38.33;4.32;;;;;;;4.52;100.00;100918.75;4911688;29;20036;-84
2022/01/29 00:56:32;;;;;;;32.38;4.43;;;;;;;4.55;100.00;100915.75;4920268;29;20031;-84
2022/01/29 00:58:57;;;;;;;28.73;3.63;;;;;;;4.57;100.00;100903.09;4909900;29;20032;-84
2022/01/29 01:01:23;;;;;;;31.67;3.53;;;;;;;4.58;100.00;100892.31;4912384;29;20105;-84
2022/01/29 01:03:48;;;;;;;34.50;4.05;;;;;;;4.61;100.00;100860.00;4893146;29;20371;-83
2022/01/29 01:06:14;;;;;;;28.52;3.35;;;;;;;4.47;100.00;100849.94;4902737;29;20032;-84
2022/01/29 01:08:39;;;;;;;37.03;4.80;;;;;;;4.51;100.00;100837.97;4898694;29;20167;-82
2022/01/29 01:11:05;;;;;;;32.03;3.50;;;;;;;4.40;100.00;100803.59;4932198;29;20036;-83
2022/01/29 01:13:31;;;;;;;32.85;3.97;;;;;;;4.68;100.00;100836.22;4899339;29;20024;-84
2022/01/29 01:15:57;;;;;;;34.67;4.72;;;;;;;4.65;100.00;100818.72;4913707;29;20047;-83
2022/01/29 01:18:22;;;;;;;32.05;4.25;;;;;;;4.59;100.00;100799.84;4930622;29;20032;-83
2022/01/29 01:20:48;;;;;;;32.92;4.18;;;;;;;4.68;100.00;100818.38;4914912;29;20024;-84
2022/01/29 01:23:13;;;;;;;30.83;3.80;;;;;;;4.71;100.00;100809.25;4914619;29;20451;-83
2022/01/29 01:25:38;;;;;;;33.45;4.22;;;;;;;4.71;100.00;100798.59;4913581;29;20105;-83
2022/01/29 01:28:04;;;;;;;36.58;5.32;;;;;;;4.20;100.00;100702.63;4898626;29;20446;-84
2022/01/29 01:30:29;;;;;;;32.25;4.97;;;;;;;4.75;100.00;100788.44;4913933;29;20036;-82
2022/01/29 01:32:55;;;;;;;34.42;5.10;;;;;;;4.77;100.00;100775.75;4898427;29;20036;-84
2022/01/29 01:35:26;;;;;;;34.08;4.90;;;;;;;4.58;100.00;100740.41;4900011;29;20040;-83
2022/01/29 01:37:57;;;;;;;30.77;4.45;;;;;;;4.80;100.00;100746.09;4897783;29;20111;-83
2022/01/29 01:40:24;;;;;;;40.88;4.57;;;;;;;4.80;100.00;100738.13;4915528;29;20442;-83
2022/01/29 01:42:51;;;;;;;28.92;4.40;;;;;;;4.70;100.00;100715.13;4898936;29;20024;-83
2022/01/29 01:45:17;;;;;;;35.03;4.72;;;;;;;4.76;100.00;100705.63;4914666;29;20036;-83
2022/01/29 01:47:42;;;;;;;35.53;5.32;;;;;;;4.82;100.00;100706.81;4931181;29;20047;-84
2022/01/29 01:50:08;;;;;;;44.80;4.68;;;;;;;4.69;100.00;100678.78;4880033;29;20039;-82
2022/01/29 01:52:34;;;;;;;37.25;4.88;;;;;;;4.86;100.00;100695.63;4910962;29;20029;-83
2022/01/29 01:54:59;;;;;;;34.78;4.63;;;;;;;4.83;100.00;100671.97;4897472;29;20103;-83
2022/01/29 01:57:24;;;;;;;31.60;4.30;;;;;;;4.74;100.00;100634.84;4880717;29;20033;-83
2022/01/29 01:59:50;;;;;;;33.90;4.13;;;;;;;4.90;100.00;100653.47;4895499;29;20036;-83
2022/01/29 02:02:15;;;;;;;38.20;5.60;;;;;;;4.82;100.00;100629.50;4897958;29;20356;-83
2022/01/29 02:04:41;;;;;;;38.10;4.97;;;;;;;4.90;100.00;100640.16;4930203;29;20493;-84
2022/01/29 02:07:07;;;;;;;28.13;4.32;;;;;;;4.89;100.00;100633.16;4898266;29;20035;-84
2022/01/29 02:09:33;;;;;;;33.35;4.47;;;;;;;4.91;100.00;100623.19;4914741;29;20036;-84
2022/01/29 02:12:01;;;;;;;29.73;4.22;;;;;;;4.73;100.00;100588.66;4901417;29;20060;-85
2022/01/29 02:14:31;;;;;;;37.22;4.63;;;;;;;4.94;100.00;100612.19;4886418;29;20104;-84
2022/01/29 02:16:57;;;;;;;37.97;4.65;;;;;;;4.98;100.00;100610.00;4897464;29;20032;-84
2022/01/29 02:19:22;;;;;;;31.23;4.63;;;;;;;5.00;100.00;100592.00;4894455;29;20039;-83
2022/01/29 02:21:48;;;;;;;41.20;4.82;;;;;;;4.85;100.00;100558.00;4896101;29;20032;-84
2022/01/29 02:24:14;;;;;;;43.38;5.32;;;;;;;5.00;100.00;100565.31;4914700;29;20028;-84
2022/01/29 02:26:40;;;;;;;37.83;6.18;;;;;;;4.93;100.00;100563.34;4928420;29;20080;-83
2022/01/29 02:29:05;;;;;;;37.25;5.22;;;;;;;5.03;100.00;100563.16;4897889;29;20063;-83
2022/01/29 02:31:31;;;;;;;35.58;4.90;;;;;;;4.97;100.00;100553.19;4929335;29;20024;-83
2022/01/29 02:33:57;;;;;;;42.17;5.15;;;;;;;4.89;100.00;100519.34;4913620;29;20044;-84
2022/01/29 02:36:22;;;;;;;36.65;5.20;;;;;;;4.96;100.00;100514.16;4927269;29;20032;-84
2022/01/29 02:38:48;;;;;;;33.40;5.05;;;;;;;5.04;100.00;100526.69;4911696;29;20056;-84
2022/01/29 02:41:13;;;;;;;28.63;4.57;;;;;;;5.07;100.00;100510.34;4930650;29;20054;-84
2022/01/29 02:43:46;;;;;;;42.47;5.50;;;;;;;5.08;100.00;100502.16;4932316;29;20028;-84
2022/01/29 02:46:29;;;;;;;31.50;5.82;;;;;;;4.86;100.00;100476.19;4915366;29;20047;-84
2022/01/29 02:48:56;;;;;;;43.35;5.60;;;;;;;5.08;100.00;100469.31;4915215;29;20024;-84
2022/01/29 02:51:23;;;;;;;34.75;5.43;;;;;;;5.07;100.00;100465.00;4913267;29;20035;-84
2022/01/29 02:53:48;;;;;;;33.38;5.50;;;;;;;4.98;100.00;100445.50;4906264;29;20092;-84
2022/01/29 02:56:14;;;;;;;33.58;4.93;;;;;;;4.99;100.00;100436.50;4921158;29;20032;-83
2022/01/29 02:58:40;;;;;;;31.05;5.32;;;;;;;5.11;100.00;100447.66;4930585;29;20044;-83
2022/01/29 03:01:08;;;;;;;31.98;5.38;;;;;;;5.15;100.00;100443.63;4911934;29;20032;-84
2022/01/29 03:03:34;;;;;;;31.73;5.53;;;;;;;5.09;100.00;100422.97;4930758;29;20043;-83
2022/01/29 03:06:02;;;;;;;26.23;4.40;;;;;;;5.15;100.00;100430.28;4925244;29;20036;-82
2022/01/29 03:08:38;;;;;;;34.25;5.18;;;;;;;5.17;100.00;100415.78;4904981;29;20024;-83
2022/01/29 03:11:05;;;;;;;36.17;5.40;;;;;;;5.18;100.00;100409.44;4915201;29;20044;-83
2022/01/29 03:13:30;;;;;;;34.05;5.63;;;;;;;5.22;100.00;100401.09;4898105;29;20032;-84
2022/01/29 03:15:56;;;;;;;24.70;4.50;;;;;;;5.19;100.00;100403.09;4914603;29;20099;-84
2022/01/29 03:18:21;;;;;;;32.05;5.32;;;;;;;5.13;100.00;100374.47;4913389;29;20032;-84
2022/01/29 03:20:46;;;;;;;21.25;4.50;;;;;;;5.21;100.00;100378.91;4913017;29;20028;-82
2022/01/29 03:23:13;;;;;;;30.85;5.32;;;;;;;5.12;100.00;100346.13;4912189;29;20069;-82
2022/01/29 03:25:39;;;;;;;26.50;5.10;;;;;;;5.16;100.00;100342.09;4910139;29;20055;-83
2022/01/29 03:28:04;;;;;;;28.45;5.18;;;;;;;5.23;100.00;100339.56;4895530;29;20451;-83
2022/01/29 03:30:29;;;;;;;30.45;4.97;;;;;;;5.26;100.00;100338.38;4896473;29;20042;-83
2022/01/29 03:32:55;;;;;;;22.80;5.40;;;;;;;5.24;100.00;100325.22;4912186;29;20103;-83
2022/01/29 03:35:20;;;;;;;21.88;4.43;;;;;;;5.16;100.00;100312.75;4912157;29;20035;-83
2022/01/29 03:37:45;;;;;;;22.77;4.97;;;;;;;5.09;100.00;100273.63;4911557;29;20080;-83
2022/01/29 03:40:11;;;;;;;31.27;5.57;;;;;;;5.24;100.00;100289.72;4899020;29;20377;-84
2022/01/29 03:42:45;;;;;;;29.27;5.30;;;;;;;5.31;100.00;100290.66;4914849;29;20031;-84
2022/01/29 03:45:13;;;;;;;25.10;4.43;;;;;;;5.29;100.00;100285.50;4932858;29;20047;-84
2022/01/29 03:47:39;;;;;;;25.67;5.30;;;;;;;5.31;100.00;100282.66;4935357;29;20109;-86
2022/01/29 03:50:05;;;;;;;17.73;5.25;;;;;;;5.25;100.00;100254.03;4918613;29;20032;-85
2022/01/29 03:52:30;;;;;;;33.30;6.10;;;;;;;5.12;100.00;100239.44;4902655;29;20043;-83
2022/01/29 03:54:55;;;;;;;24.67;5.43;;;;;;;5.26;100.00;100250.34;4929605;29;20039;-83
2022/01/29 03:57:21;;;;;;;27.27;5.80;;;;;;;5.36;100.00;100253.59;4881673;29;20028;-83
2022/01/29 03:59:46;;;;;;;22.85;5.38;;;;;;;5.36;100.00;100245.59;4928984;29;20363;-83
2022/01/29 04:02:12;;;;;;;24.48;5.57;;;;;;;5.39;100.00;100239.91;4887315;29;20048;-84
2022/01/29 04:04:37;;;;;;;17.48;4.72;;;;;;;5.36;100.00;100235.78;4894605;29;20032;-84
2022/01/29 04:07:09;;;;;;;24.63;5.47;;;;;;;5.38;100.00;100236.41;4908643;29;20032;-83
2022/01/29 04:09:35;;;;;;;27.45;5.60;;;;;;;5.42;100.00;100218.19;4912473;29;20039;-83
2022/01/29 04:12:02;;;;;;;26.50;5.20;;;;;;;5.40;100.00;100213.06;4896671;29;20040;-84
2022/01/29 04:14:33;;;;;;;27.73;6.00;;;;;;;5.46;100.00;100202.66;4912826;29;20040;-83
2022/01/29 04:16:58;;;;;;;20.50;4.38;;;;;;;5.34;100.00;100192.44;4913139;29;20056;-83
2022/01/29 04:19:24;;;;;;;17.63;5.07;;;;;;;5.32;100.00;100185.63;4898365;29;20036;-84
2022/01/29 04:21:49;;;;;;;21.05;5.78;;;;;;;5.36;100.00;100176.22;4903176;29;20096;-83
2022/01/29 04:24:14;;;;;;;19.20;5.47;;;;;;;5.50;100.00;100198.66;4916322;29;20076;-84
2022/01/29 04:26:40;;;;;;;26.42;6.25;;;;;;;5.52;100.00;100189.41;4892262;29;20056;-84
2022/01/29 04:29:08;;;;;;;22.80;5.95;;;;;;;5.52;100.00;100184.09;4895126;29;20098;-83
2022/01/29 04:32:11;;;;;;;20.60;5.90;;;;;;;5.53;100.00;100169.75;4882555;29;20028;-83
2022/01/29 04:34:26;;;;;;;21.67;5.93;;;;;;;5.35;100.00;100124.72;4927346;29;20435;-84
2022/01/29 04:36:52;;;;;;;24.58;5.80;;;;;;;5.52;100.00;100152.06;4896860;29;20032;-84
2022/01/29 04:39:17;;;;;;;17.88;6.15;;;;;;;5.44;100.00;100113.97;4911233;29;20076;-83
2022/01/29 04:41:43;;;;;;;28.67;6.47;;;;;;;5.38;100.00;100089.66;4897778;29;20032;-84
2022/01/29 04:44:08;;;;;;;22.90;6.40;;;;;;;5.60;100.00;100129.81;4916363;29;20741;-84
2022/01/29 04:46:34;;;;;;;23.15;6.50;;;;;;;5.51;100.00;100091.72;4916072;29;20123;-84
2022/01/29 04:48:59;;;;;;;24.45;6.35;;;;;;;5.68;100.00;100107.53;4884547;29;20024;-84
2022/01/29 04:51:24;;;;;;;25.13;6.57;;;;;;;5.55;100.00;100066.31;4917268;29;20036;-84
2022/01/29 04:53:50;;;;;;;17.23;5.32;;;;;;;5.72;100.00;100082.13;4901153;29;20032;-85
2022/01/29 04:56:16;;;;;;;18.10;5.93;;;;;;;5.72;100.00;100076.78;4912542;29;20500;-83
2022/01/29 04:58:42;;;;;;;20.27;5.85;;;;;;;5.75;100.00;100068.41;4912472;29;20059;-84
2022/01/29 05:01:07;;;;;;;26.20;5.85;;;;;;;5.75;100.00;100068.41;4897996;29;20028;-84
2022/01/29 05:03:33;;;;;;;12.90;5.57;;;;;;;5.79;100.00;100057.16;4898907;29;20038;-84
2022/01/29 05:05:59;;;;;;;15.38;5.43;;;;;;;5.69;100.00;100034.44;4897618;29;20031;-83
2022/01/29 05:08:25;;;;;;;17.30;5.60;;;;;;;5.75;100.00;100012.34;4929579;29;20064;-84
2022/01/29 05:10:51;;;;;;;18.88;5.72;;;;;;;5.63;100.00;99993.34;4934537;29;20039;-85
2022/01/29 05:13:21;;;;;;;13.52;5.40;;;;;;;5.73;100.00;99998.34;4931895;29;20036;-84
2022/01/29 05:27:02;;;;;;;18.23;6.45;;;;;;;5.88;100.00;99993.81;4919306;29;20043;-84
2022/01/29 05:29:30;;;;;;;16.05;6.57;;;;;;;5.90;100.00;99983.78;4903532;29;20124;-83
2022/01/29 05:31:57;;;;;;;16.52;6.75;;;;;;;5.87;100.00;99986.84;4915952;29;20104;-84
2022/01/29 05:34:22;;;;;;;16.73;7.05;;;;;;;5.90;100.00;99978.44;4900414;29;20092;-83
2022/01/29 05:36:48;;;;;;;17.73;7.80;;;;;;;5.83;100.00;99958.88;4899845;29;20366;-84
2022/01/29 05:39:14;;;;;;;17.05;7.38;;;;;;;5.92;100.00;99956.88;4914332;29;20056;-84
2022/01/29 05:41:40;;;;;;;17.98;7.40;;;;;;;5.81;100.00;99934.19;4899363;29;20193;-83
2022/01/29 05:44:06;;;;;;;19.77;7.50;;;;;;;5.83;100.00;99934.84;4931509;29;20474;-84
2022/01/29 05:46:31;;;;;;;22.92;7.65;;;;;;;5.88;100.00;99938.56;4931446;29;20119;-84
2022/01/29 05:48:57;;;;;;;20.58;7.32;;;;;;;5.92;100.00;99938.19;4898999;29;20028;-84
2022/01/29 05:51:22;;;;;;;26.27;8.27;;;;;;;5.99;100.00;99936.44;4931168;29;20036;-83
2022/01/29 05:53:48;;;;;;;25.60;7.68;;;;;;;6.06;100.00;99923.97;4898621;29;20370;-83
2022/01/29 05:56:13;;;;;;;19.15;7.60;;;;;;;6.08;100.00;99890.72;4931747;29;20034;-83
2022/01/29 05:58:38;;;;;;;20.55;7.45;;;;;;;5.94;100.00;99867.59;4898677;29;20040;-84
2022/01/29 06:01:04;;;;;;;24.15;8.35;;;;;;;6.11;100.00;99886.84;4932150;29;20032;-85
2022/01/29 06:03:30;;;;;;;22.60;6.70;;;;;;;6.13;100.00;99886.69;4932465;29;20024;-84
2022/01/29 06:05:55;;;;;;;21.40;6.68;;;;;;;6.01;100.00;99851.63;4928150;29;20123;-83
2022/01/29 06:08:21;;;;;;;21.75;6.72;;;;;;;6.21;100.00;99882.00;4931515;29;20095;-83
2022/01/29 06:10:47;;;;;;;21.60;6.60;;;;;;;6.24;100.00;99876.28;4929698;29;20020;-83
2022/01/29 06:13:15;;;;;;;19.98;6.05;;;;;;;6.20;100.00;99861.66;4931243;29;20033;-83
2022/01/29 06:15:43;;;;;;;14.50;5.30;;;;;;;6.37;100.00;99874.72;4884300;29;20107;-85
2022/01/29 06:18:18;;;;;;;15.65;5.53;;;;;;;6.40;100.00;99855.66;4913237;29;20064;-83
2022/01/29 06:20:51;;;;;;;17.13;5.32;;;;;;;6.34;100.00;99834.00;4928584;29;20044;-83
2022/01/29 06:23:20;;;;;;;17.80;5.50;;;;;;;6.47;100.00;99846.63;4912116;29;20035;-84
2022/01/29 06:25:46;;;;;;;14.43;4.75;;;;;;;6.52;100.00;99846.91;4912374;29;20024;-83
2022/01/29 06:28:11;;;;;;;15.70;5.13;;;;;;;6.56;100.00;99858.84;4898159;29;20127;-83
2022/01/29 06:30:37;;;;;;;15.40;4.63;;;;;;;6.53;100.00;99834.34;4882530;29;20032;-84
2022/01/29 06:33:10;;;;;;;19.48;5.32;;;;;;;6.62;100.00;99837.66;4910534;29;20039;-83
2022/01/29 06:35:37;;;;;;;18.45;4.85;;;;;;;6.60;100.00;99824.53;4912365;29;20070;-83
2022/01/29 06:38:04;;;;;;;20.05;5.15;;;;;;;6.43;100.00;99807.16;4911663;29;20048;-83
2022/01/29 06:40:30;;;;;;;18.00;4.88;;;;;;;6.54;100.00;99810.09;4914214;29;20024;-84
2022/01/29 06:42:56;;;;;;;19.98;4.53;;;;;;;6.45;100.00;99787.22;4897703;29;20043;-83
2022/01/29 06:45:22;;;;;;;18.35;5.50;;;;;;;6.67;100.00;99816.53;4914767;29;20055;-84
2022/01/29 06:47:47;;;;;;;17.98;5.05;;;;;;;6.32;100.00;99752.41;4933265;29;20020;-85
2022/01/29 06:50:12;;;;;;;16.23;5.10;;;;;;;6.70;100.00;99789.41;4908815;29;20052;-86
2022/01/29 06:52:38;;;;;;;18.42;4.80;;;;;;;6.73;100.00;99781.81;4917116;29;20032;-83
2022/01/29 06:55:03;;;;;;;20.63;4.88;;;;;;;6.73;100.00;99781.00;4923577;29;20047;-83
2022/01/29 06:57:29;;;;;;;19.02;5.03;;;;;;;6.78;100.00;99768.66;4915495;29;20043;-84
2022/01/29 06:59:54;;;;;;;17.73;4.50;;;;;;;6.72;100.00;99763.28;4914886;29;20059;-84
2022/01/29 07:02:20;;;;;;;17.40;4.00;;;;;;;6.74;100.00;99759.38;4913381;29;20124;-84
2022/01/29 07:04:45;;;;;;;19.65;4.80;;;;;;;6.84;100.00;99777.72;4897229;29;20028;-81
2022/01/29 07:07:10;;;;;;;21.65;4.82;;;;;;;6.84;100.00;99777.72;4929003;29;20439;-84
2022/01/29 07:09:36;;;;;;;14.57;4.25;;;;;;;6.77;100.00;99750.97;4912914;29;20035;-83
2022/01/29 07:12:09;;;;;;;19.13;4.30;;;;;;;6.85;100.00;99757.97;4913185;29;20091;-84
2022/01/29 07:14:38;;;;;;;22.70;4.25;;;;;;;6.70;100.00;99727.91;4912544;29;20039;-84
2022/01/29 07:17:07;;;;;;;19.10;4.55;;;;;;;6.88;100.00;99751.41;4914379;29;20048;-83
2022/01/29 07:19:32;;;;;;;22.90;4.38;;;;;;;6.69;100.00;99716.41;4931265;29;20073;-84
2022/01/29 07:21:57;;;;;;;22.75;4.55;;;;;;;6.79;100.00;99716.84;4913673;29;20040;-85
2022/01/29 07:24:23;;;;;;;25.50;4.65;;;;;;;6.87;100.00;99718.50;4914088;29;20358;-84
2022/01/29 07:26:48;;;;;;;27.35;5.57;;;;;;;6.91;100.00;99709.06;4909740;29;20051;-84
2022/01/29 07:29:13;;;;;;;20.80;4.78;;;;;;;6.95;100.00;99699.59;4928108;29;20054;-83
2022/01/29 07:31:39;;;;;;;20.17;5.13;;;;;;;6.99;100.00;99700.84;4912199;29;20042;-83
2022/01/29 07:34:04;;;;;;;25.58;6.10;;;;;;;6.99;100.00;99692.84;4911681;29;20036;-83
2022/01/29 07:36:30;;;;;;;28.38;5.93;;;;;;;7.03;100.00;99680.69;4925845;29;20048;-82
2022/01/29 07:38:55;;;;;;;28.17;6.63;;;;;;;7.03;100.00;99677.19;4882120;29;20050;-86
2022/01/29 07:41:20;;;;;;;25.95;6.78;;;;;;;7.03;100.00;99667.31;4892331;29;20611;-83
2022/01/29 07:43:46;;;;;;;27.13;6.57;;;;;;;7.00;100.00;99657.03;4895224;29;20036;-83
2022/01/29 07:46:11;;;;;;;26.52;7.47;;;;;;;7.04;100.00;99655.59;4908605;29;20071;-83
2022/01/29 07:48:36;;;;;;;33.67;5.88;;;;;;;7.05;100.00;99645.69;4920957;29;20374;-81
2022/01/29 07:51:02;;;;;;;22.98;6.70;;;;;;;6.96;100.00;99617.53;4888642;29;20078;-80
2022/01/29 07:53:27;;;;;;;26.95;5.95;;;;;;;7.06;100.00;99631.31;4902239;29;20354;-81
2022/01/29 07:55:52;;;;;;;19.65;5.00;;;;;;;7.06;100.00;99629.47;4906668;29;20043;-83
2022/01/29 07:58:18;;;;;;;25.40;6.40;;;;;;;7.06;100.00;99625.97;4924795;29;20051;-83
2022/01/29 08:00:43;;;;;;;31.30;6.78;;;;;;;7.02;100.00;99611.38;4893383;29;20059;-84
2022/01/29 08:03:08;;;;;;;26.05;6.35;;;;;;;7.06;100.00;99609.91;4925448;29;20028;-82
2022/01/29 08:05:35;;;;;;;27.13;5.88;;;;;;;7.06;100.00;99602.72;4892951;29;20028;-83
2022/01/29 08:08:00;;;;;;;31.02;6.00;;;;;;;7.05;100.00;99587.72;4909502;29;20032;-83
2022/01/29 08:10:26;;;;;;;22.90;5.10;;;;;;;6.95;100.00;99555.16;4877773;29;20032;-82
2022/01/29 08:12:51;;;;;;;30.77;6.40;;;;;;;7.17;100.00;99554.97;4918283;29;20103;-81
2022/01/29 08:15:16;;;;;;;34.17;6.40;;;;;;;7.18;100.00;99548.59;4920702;29;20435;-85
2022/01/29 08:17:42;;;;;;;30.17;6.15;;;;;;;7.16;100.00;99540.78;4894312;29;20104;-83
2022/01/29 08:20:08;;;;;;;24.10;4.60;;;;;;;7.23;100.00;99530.06;4909705;29;20048;-83
2022/01/29 08:22:33;;;;;;;23.33;4.88;;;;;;;7.23;100.00;99519.38;4897432;29;20032;-81
2022/01/29 08:24:59;;;;;;;19.52;3.83;;;;;;;7.16;100.00;99483.78;4926414;29;20048;-82
2022/01/29 08:27:25;;;;;;;24.05;4.18;;;;;;;7.17;100.00;99488.09;4882332;29;20426;-81
2022/01/29 08:29:50;;;;;;;23.63;4.00;;;;;;;7.29;100.00;99487.25;4911366;29;20063;-81
2022/01/29 08:32:16;;;;;;;24.08;3.72;;;;;;;7.38;100.00;99493.16;4881444;29;20044;-86
2022/01/29 08:34:43;;;;;;;21.00;4.22;;;;;;;7.46;100.00;99506.34;4913955;29;20020;-84
2022/01/29 08:37:09;;;;;;;18.45;3.83;;;;;;;7.47;100.00;99499.13;4890471;29;20040;-81
2022/01/29 08:39:34;;;;;;;9.80;3.58;;;;;;;7.43;100.00;99492.56;4924735;29;20419;-80
2022/01/29 08:42:00;;;;;;;15.65;3.42;;;;;;;7.48;100.00;99493.56;4920100;29;20032;-80
2022/01/29 08:44:25;;;;;;;11.82;2.97;;;;;;;7.48;100.00;99490.91;4905067;29;20051;-84
2022/01/29 08:46:51;;;;;;;13.57;2.42;;;;;;;7.37;100.00;99470.13;4908452;29;20052;-85
2022/01/29 08:49:17;;;;;;;6.47;1.90;;;;;;;7.43;100.00;99496.06;4896695;29;20490;-84
2022/01/29 08:51:42;;;;;;;8.57;1.58;;;;;;;7.42;100.00;99491.75;4925893;29;20039;-84
2022/01/29 08:54:08;;;;;;;8.32;1.73;;;;;;;7.37;100.00;99480.00;4909450;29;20176;-83
2022/01/29 08:56:33;;;;;;;5.70;1.42;;;;;;;7.43;100.00;99487.19;4896641;29;20040;-84
2022/01/29 08:58:59;;;;;;;5.80;1.63;;;;;;;7.42;100.00;99461.47;4929106;29;20024;-84
2022/01/29 09:01:24;;;;;;;5.68;1.60;;;;;;;7.43;100.00;99473.81;4929276;29;20469;-85
2022/01/29 09:03:50;;;;;;;4.20;1.10;;;;;;;7.34;100.00;99467.06;4907412;29;20095;-85
2022/01/29 09:06:16;;;;;;;12.13;1.67;;;;;;;7.41;100.00;99463.31;4910366;29;20518;-84
2022/01/29 09:08:46;;;;;;;9.43;1.27;;;;;;;7.44;100.00;99452.19;4925098;29;20039;-85
2022/01/29 09:11:12;;;;;;;7.65;1.25;;;;;;;7.40;100.00;99440.28;4928744;29;20079;-84
2022/01/29 09:13:37;;;;;;;5.80;1.27;;;;;;;7.42;100.00;99427.50;4898806;29;20039;-84
2022/01/29 09:16:03;;;;;;;8.18;1.40;;;;;;;7.38;100.00;99407.53;4896401;29;20044;-84
2022/01/29 09:18:28;;;;;;;9.35;1.30;;;;;;;7.53;100.00;99418.81;4882180;29;20032;-84
2022/01/29 09:20:54;;;;;;;9.05;1.52;;;;;;;7.47;100.00;99402.78;4931542;29;20085;-84
2022/01/29 09:23:19;;;;;;;12.38;1.55;;;;;;;7.48;100.00;99399.91;4913702;29;20028;-85
2022/01/29 09:25:44;;;;;;;6.28;1.50;;;;;;;7.56;100.00;99406.03;4901977;29;20438;-86
2022/01/29 09:28:12;;;;;;;9.20;1.50;;;;;;;7.54;100.00;99382.97;4911029;29;20028;-81
2022/01/29 09:30:37;;;;;;;11.65;1.60;;;;;;;7.50;100.00;99387.09;4910311;29;20047;-82
2022/01/29 09:33:03;;;;;;;11.25;1.65;;;;;;;7.42;100.00;99362.47;4928763;29;20032;-85
2022/01/29 09:35:29;;;;;;;9.43;1.65;;;;;;;7.52;100.00;99368.16;4901687;29;20036;-86
2022/01/29 09:37:55;;;;;;;8.27;1.58;;;;;;;7.59;100.00;99381.53;4938392;29;20012;-87
2022/01/29 09:40:21;;;;;;;10.98;2.00;;;;;;;7.66;100.00;99368.91;4931238;29;20124;-82
2022/01/29 09:42:49;;;;;;;13.27;2.10;;;;;;;7.62;100.00;99365.03;4900831;29;20035;-86
2022/01/29 09:45:16;;;;;;;8.80;1.80;;;;;;;7.71;100.00;99363.72;4937685;29;20092;-88
2022/01/29 09:47:44;;;;;;;7.22;1.70;;;;;;;7.71;100.00;99353.81;4917634;29;20056;-83
2022/01/29 09:50:11;;;;;;;13.43;1.95;;;;;;;7.68;100.00;99350.75;4916939;29;20059;-86
2022/01/29 09:52:37;;;;;;;11.15;1.80;;;;;;;7.55;100.00;99300.81;4933192;29;20027;-87
2022/01/29 09:55:03;;;;;;;9.73;1.95;;;;;;;7.66;100.00;99310.84;4917430;29;20125;-87
2022/01/29 09:57:29;;;;;;;6.18;1.48;;;;;;;7.74;100.00;99315.09;4917919;29;20059;-88
2022/01/29 09:59:54;;;;;;;9.75;1.70;;;;;;;7.68;100.00;99308.78;4913713;29;20127;-87
2022/01/29 10:02:20;;;;;;;9.48;1.48;;;;;;;7.75;100.00;99289.97;4888567;29;20048;-88
2022/01/29 10:04:54;;;;;;;12.50;2.10;;;;;;;7.72;100.00;99293.09;4922389;29;20060;-88
2022/01/29 10:07:24;;;;;;;8.45;1.77;;;;;;;7.73;100.00;99284.00;4922189;29;20024;-87
2022/01/29 10:09:50;;;;;;;7.30;1.80;;;;;;;7.70;100.00;99276.41;4920569;29;20040;-88
2022/01/29 10:12:22;;;;;;;11.75;2.05;;;;;;;7.67;100.00;99269.63;4919310;29;20042;-87
2022/01/29 10:14:50;;;;;;;13.30;2.05;;;;;;;7.70;100.00;99261.16;4929946;29;20028;-87
2022/01/29 10:17:37;;;;;;;13.65;2.20;;;;;;;7.65;100.00;99258.34;4916224;29;20060;-88
2022/01/29 10:20:27;;;;;;;14.52;2.05;;;;;;;7.69;100.00;99234.63;4922323;29;20032;-87
2022/01/29 10:22:54;;;;;;;17.65;2.65;;;;;;;7.71;100.00;99232.53;4918750;29;20095;-87
2022/01/29 10:25:25;;;;;;;18.50;3.42;;;;;;;7.44;100.00;99181.06;4940401;29;20087;-87
2022/01/29 10:28:15;;;;;;;19.30;3.22;;;;;;;7.73;100.00;99225.09;4925248;29;20039;-87
2022/01/29 10:30:50;;;;;;;24.35;4.28;;;;;;;7.79;100.00;99223.41;4917385;29;20028;-87
2022/01/29 10:33:18;;;;;;;24.83;4.20;;;;;;;7.74;100.00;99205.31;4914581;29;20048;-87
2022/01/29 10:35:44;;;;;;;45.83;5.82;;;;;;;7.78;100.00;99203.81;4919147;29;20035;-87
2022/01/29 10:38:10;;;;;;;41.58;6.07;;;;;;;7.72;100.00;99184.13;4918094;29;20139;-88
2022/01/29 10:40:35;;;;;;;54.95;6.30;;;;;;;7.71;100.00;99177.13;4873208;29;20039;-87
2022/01/29 10:43:05;;;;;;;50.63;6.20;;;;;;;7.67;100.00;99161.72;4902875;29;20032;-87
2022/01/29 10:45:33;;;;;;;51.95;7.85;;;;;;;7.65;100.00;99161.97;4904032;29;20036;-89
2022/01/29 10:47:58;;;;;;;58.55;7.38;;;;;;;7.67;100.00;99145.66;4932999;29;20020;-80
2022/01/29 10:50:25;;;;;;;58.55;7.70;;;;;;;7.78;100.00;99152.97;4897409;29;20514;-84
2022/01/29 10:52:50;;;;;;;56.72;7.43;;;;;;;7.76;100.00;99141.66;4895628;29;20040;-84
2022/01/29 10:55:16;;;;;;;56.15;7.60;;;;;;;7.81;100.00;99143.66;4894684;29;20047;-82
2022/01/29 10:57:50;;;;;;;59.13;7.55;;;;;;;7.85;100.00;99156.41;4908904;29;20028;-83
2022/01/29 11:00:25;;;;;;;68.72;8.27;;;;;;;7.85;100.00;99140.34;4916471;29;20040;-88
2022/01/29 11:02:53;;;;;;;57.65;7.60;;;;;;;7.80;100.00;99124.13;4926565;29;20032;-82
2022/01/29 11:05:22;;;;;;;61.75;8.63;;;;;;;7.87;100.00;99132.88;4889774;29;20116;-84
2022/01/29 11:07:51;;;;;;;70.43;8.45;;;;;;;7.88;100.00;99120.31;4919853;29;20048;-82
2022/01/29 11:10:18;;;;;;;65.60;7.72;;;;;;;7.92;100.00;99116.97;4912094;29;20073;-80
2022/01/29 11:12:46;;;;;;;80.15;9.68;;;;;;;7.92;100.00;99103.59;4912076;29;20034;-86
2022/01/29 11:15:14;;;;;;;84.00;8.77;;;;;;;7.85;100.00;99086.78;4898438;29;20036;-83
2022/01/29 11:17:40;;;;;;;65.43;8.48;;;;;;;7.76;100.00;99061.34;4900298;29;20036;-88
2022/01/29 11:20:06;;;;;;;72.03;8.43;;;;;;;7.88;100.00;99078.31;4930865;29;20026;-83
2022/01/29 11:22:40;;;;;;;87.13;9.02;;;;;;;7.96;100.00;99074.50;4895329;29;20032;-85
2022/01/29 11:25:12;;;;;;;73.20;8.15;;;;;;;7.84;100.00;99055.69;4912572;29;20060;-86
2022/01/29 11:27:38;;;;;;;74.55;9.32;;;;;;;7.91;100.00;99067.16;4913735;29;20028;-86
2022/01/29 11:30:09;;;;;;;70.78;9.40;;;;;;;7.95;100.00;99071.00;4921811;29;20037;-86